createdAt,value
2017-10-19T00:00:32.882Z,0
2017-10-19T00:01:35.311Z,0
2017-10-19T00:02:37.742Z,0
2017-10-19T00:03:40.169Z,0
2017-10-19T00:04:42.599Z,0
2017-10-19T00:05:45.032Z,0
2017-10-19T00:06:47.826Z,0
2017-10-19T00:07:50.251Z,0
2017-10-19T00:08:52.692Z,0
2017-10-19T00:09:55.107Z,0
2017-10-19T00:10:57.556Z,0
2017-10-19T00:11:59.977Z,0
2017-10-19T00:13:02.407Z,0
2017-10-19T00:14:05.199Z,0
2017-10-19T00:15:07.636Z,0
2017-10-19T00:16:10.059Z,0
2017-10-19T00:17:12.852Z,0
2017-10-19T00:18:15.281Z,0
2017-10-19T00:19:17.706Z,0
2017-10-19T00:20:20.129Z,0
2017-10-19T00:21:22.930Z,0
2017-10-19T00:22:25.359Z,0
2017-10-19T00:23:27.780Z,0
2017-10-19T00:24:30.215Z,0
2017-10-19T00:25:32.642Z,0
2017-10-19T00:26:35.075Z,0
2017-10-19T00:27:37.863Z,0
2017-10-19T00:28:40.282Z,0
2017-10-19T00:29:42.717Z,0
2017-10-19T00:30:45.159Z,0
2017-10-19T00:31:47.582Z,0
2017-10-19T00:32:50.012Z,0
2017-10-19T00:33:52.441Z,0
2017-10-19T00:34:54.872Z,0
2017-10-19T00:35:57.319Z,0
2017-10-19T00:36:59.740Z,0
2017-10-19T00:38:02.167Z,0
2017-10-19T00:39:04.596Z,0
2017-10-19T00:40:07.019Z,0
2017-10-19T00:41:09.451Z,0
2017-10-19T00:42:11.881Z,0
2017-10-19T00:43:14.322Z,0
2017-10-19T00:44:17.114Z,0
2017-10-19T00:45:19.558Z,0
2017-10-19T00:46:21.990Z,0
2017-10-19T00:47:24.417Z,0
2017-10-19T00:48:26.850Z,0
2017-10-19T00:49:29.641Z,0
2017-10-19T00:50:32.074Z,0
2017-10-19T00:51:34.507Z,0
2017-10-19T00:52:36.949Z,0
2017-10-19T00:53:39.381Z,0
2017-10-19T00:54:41.809Z,0
2017-10-19T00:55:44.238Z,0
2017-10-19T00:56:46.676Z,0
2017-10-19T00:57:49.104Z,0
2017-10-19T00:58:51.531Z,0
2017-10-19T00:59:53.964Z,0
2017-10-19T01:00:56.389Z,0
2017-10-19T01:01:58.837Z,0
2017-10-19T01:03:01.259Z,0
2017-10-19T01:04:04.045Z,0
2017-10-19T01:05:06.487Z,0
2017-10-19T01:06:09.274Z,0
2017-10-19T01:07:11.711Z,0
2017-10-19T01:08:14.141Z,0
2017-10-19T01:09:16.555Z,0
2017-10-19T01:10:18.991Z,0
2017-10-19T01:11:21.429Z,0
2017-10-19T01:12:23.865Z,0
2017-10-19T01:13:26.301Z,0
2017-10-19T01:14:29.085Z,0
2017-10-19T01:15:31.524Z,0
2017-10-19T01:16:34.340Z,0
2017-10-19T01:17:36.774Z,0
2017-10-19T01:18:39.200Z,0
2017-10-19T01:19:41.998Z,0
2017-10-19T01:20:44.437Z,0
2017-10-19T01:21:46.870Z,0
2017-10-19T01:22:49.303Z,0
2017-10-19T01:23:51.741Z,0
2017-10-19T01:24:54.171Z,0
2017-10-19T01:25:56.612Z,0
2017-10-19T01:26:59.041Z,0
2017-10-19T01:28:01.468Z,0
2017-10-19T01:29:03.899Z,0
2017-10-19T01:30:06.328Z,0
2017-10-19T01:31:08.775Z,0
2017-10-19T01:32:11.203Z,0
2017-10-19T01:33:13.622Z,0
2017-10-19T01:34:16.050Z,0
2017-10-19T01:35:18.487Z,0
2017-10-19T01:36:20.914Z,0
2017-10-19T01:37:23.351Z,0
2017-10-19T01:38:25.776Z,0
2017-10-19T01:39:28.206Z,0
2017-10-19T01:40:31.009Z,0
2017-10-19T01:41:33.437Z,0
2017-10-19T01:42:35.871Z,0
2017-10-19T01:43:38.294Z,0
2017-10-19T01:44:40.724Z,0
2017-10-19T01:45:43.158Z,0
2017-10-19T01:46:45.584Z,0
2017-10-19T01:47:48.402Z,0
2017-10-19T01:48:50.833Z,0
2017-10-19T01:49:53.260Z,0
2017-10-19T01:50:55.688Z,0
2017-10-19T01:51:58.129Z,0
2017-10-19T01:53:00.566Z,0
2017-10-19T01:54:02.988Z,0
2017-10-19T01:55:05.419Z,0
2017-10-19T01:56:08.196Z,0
2017-10-19T01:57:10.633Z,0
2017-10-19T01:58:13.075Z,0
2017-10-19T01:59:15.844Z,0
2017-10-19T02:00:18.280Z,0
2017-10-19T02:01:20.717Z,0
2017-10-19T02:02:23.155Z,0
2017-10-19T02:03:25.595Z,0
2017-10-19T02:04:28.034Z,0
2017-10-19T02:05:30.458Z,0
2017-10-19T02:06:32.889Z,0
2017-10-19T02:07:35.333Z,0
2017-10-19T02:08:37.745Z,0
2017-10-19T02:09:40.187Z,0
2017-10-19T02:10:42.617Z,0
2017-10-19T02:11:45.048Z,0
2017-10-19T02:12:47.473Z,0
2017-10-19T02:13:49.904Z,0
2017-10-19T02:14:52.335Z,0
2017-10-19T02:15:55.138Z,0
2017-10-19T02:16:57.571Z,0
2017-10-19T02:18:00.004Z,0
2017-10-19T02:19:02.433Z,0
2017-10-19T02:20:04.867Z,0
2017-10-19T02:21:07.298Z,0
2017-10-19T02:22:10.088Z,0
2017-10-19T02:23:12.526Z,0
2017-10-19T02:24:14.947Z,0
2017-10-19T02:25:17.388Z,0
2017-10-19T02:26:19.813Z,0
2017-10-19T02:27:22.252Z,0
2017-10-19T02:28:25.033Z,0
2017-10-19T02:29:27.821Z,0
2017-10-19T02:30:30.246Z,0
2017-10-19T02:31:32.691Z,0
2017-10-19T02:32:35.117Z,0
2017-10-19T02:33:37.552Z,0
2017-10-19T02:34:39.993Z,0
2017-10-19T02:35:42.427Z,0
2017-10-19T02:36:44.861Z,0
2017-10-19T02:37:47.286Z,0
2017-10-19T02:38:49.719Z,0
2017-10-19T02:39:52.146Z,0
2017-10-19T02:40:54.577Z,0
2017-10-19T02:41:57.016Z,0
2017-10-19T02:42:59.433Z,0
2017-10-19T02:44:01.873Z,0
2017-10-19T02:45:04.310Z,0
2017-10-19T02:46:06.738Z,0
2017-10-19T02:47:09.182Z,0
2017-10-19T02:48:11.613Z,0
2017-10-19T02:49:14.035Z,0
2017-10-19T02:50:16.480Z,0
2017-10-19T02:51:18.910Z,0
2017-10-19T02:52:21.330Z,0
2017-10-19T02:53:23.758Z,0
2017-10-19T02:54:26.188Z,0
2017-10-19T02:55:28.964Z,0
2017-10-19T02:56:31.411Z,0
2017-10-19T02:57:33.832Z,0
2017-10-19T02:58:36.257Z,0
2017-10-19T02:59:38.696Z,0
2017-10-19T03:00:41.124Z,0
2017-10-19T03:01:43.561Z,0
2017-10-19T03:02:45.993Z,0
2017-10-19T03:03:48.815Z,0
2017-10-19T03:04:51.251Z,0
2017-10-19T03:05:53.673Z,0
2017-10-19T03:06:56.109Z,0
2017-10-19T03:07:58.529Z,0
2017-10-19T03:09:00.972Z,0
2017-10-19T03:10:03.397Z,0
2017-10-19T03:11:05.833Z,0
2017-10-19T03:12:08.264Z,0
2017-10-19T03:13:10.702Z,0
2017-10-19T03:14:13.128Z,0
2017-10-19T03:15:15.921Z,0
2017-10-19T03:16:18.348Z,0
2017-10-19T03:17:20.775Z,0
2017-10-19T03:18:23.206Z,0
2017-10-19T03:19:25.644Z,0
2017-10-19T03:20:28.061Z,0
2017-10-19T03:21:30.495Z,0
2017-10-19T03:22:32.929Z,0
2017-10-19T03:23:35.717Z,0
2017-10-19T03:24:38.150Z,0
2017-10-19T03:25:40.582Z,0
2017-10-19T03:26:43.011Z,0
2017-10-19T03:27:45.443Z,0
2017-10-19T03:28:47.879Z,0
2017-10-19T03:29:50.307Z,0
2017-10-19T03:30:52.748Z,0
2017-10-19T03:31:55.163Z,0
2017-10-19T03:32:57.605Z,0
2017-10-19T03:34:00.053Z,0
2017-10-19T03:35:02.481Z,0
2017-10-19T03:36:04.914Z,0
2017-10-19T03:37:07.339Z,0
2017-10-19T03:38:09.764Z,0
2017-10-19T03:39:12.207Z,0
2017-10-19T03:40:15.020Z,0
2017-10-19T03:41:17.795Z,0
2017-10-19T03:42:20.587Z,0
2017-10-19T03:43:23.025Z,0
2017-10-19T03:44:25.449Z,0
2017-10-19T03:45:27.891Z,0
2017-10-19T03:46:30.312Z,0
2017-10-19T03:47:33.107Z,0
2017-10-19T03:48:35.543Z,0
2017-10-19T03:49:37.969Z,0
2017-10-19T03:50:40.407Z,0
2017-10-19T03:51:42.834Z,0
2017-10-19T03:52:45.264Z,0
2017-10-19T03:53:47.700Z,0
2017-10-19T03:54:50.127Z,0
2017-10-19T03:55:52.557Z,0
2017-10-19T03:56:55.004Z,0
2017-10-19T03:57:57.419Z,0
2017-10-19T03:58:59.849Z,0
2017-10-19T04:00:02.278Z,0
2017-10-19T04:01:04.709Z,0
2017-10-19T04:02:07.137Z,0
2017-10-19T04:03:09.931Z,0
2017-10-19T04:04:12.364Z,0
2017-10-19T04:05:14.790Z,0
2017-10-19T04:06:17.222Z,0
2017-10-19T04:07:19.667Z,0
2017-10-19T04:08:22.103Z,0
2017-10-19T04:09:24.534Z,0
2017-10-19T04:10:26.971Z,0
2017-10-19T04:11:29.409Z,0
2017-10-19T04:12:31.847Z,0
2017-10-19T04:13:34.278Z,0
2017-10-19T04:14:36.693Z,0
2017-10-19T04:15:39.136Z,0
2017-10-19T04:16:41.919Z,0
2017-10-19T04:17:44.347Z,0
2017-10-19T04:18:47.153Z,0
2017-10-19T04:19:49.601Z,0
2017-10-19T04:20:52.029Z,0
2017-10-19T04:21:54.449Z,0
2017-10-19T04:22:56.896Z,0
2017-10-19T04:23:59.312Z,0
2017-10-19T04:25:01.747Z,0
2017-10-19T04:26:04.188Z,0
2017-10-19T04:27:06.608Z,0
2017-10-19T04:28:09.042Z,0
2017-10-19T04:29:11.487Z,0
2017-10-19T04:30:13.915Z,0
2017-10-19T04:31:16.342Z,0
2017-10-19T04:32:19.126Z,0
2017-10-19T04:33:21.551Z,0
2017-10-19T04:34:23.990Z,0
2017-10-19T04:35:26.422Z,0
2017-10-19T04:36:28.853Z,0
2017-10-19T04:37:31.291Z,0
2017-10-19T04:38:33.721Z,0
2017-10-19T04:39:36.156Z,0
2017-10-19T04:40:38.603Z,0
2017-10-19T04:41:41.031Z,0
2017-10-19T04:42:43.460Z,0
2017-10-19T04:43:45.889Z,0
2017-10-19T04:44:48.330Z,0
2017-10-19T04:45:50.752Z,0
2017-10-19T04:46:53.184Z,0
2017-10-19T04:47:55.621Z,0
2017-10-19T04:48:58.055Z,0
2017-10-19T04:50:00.495Z,0
2017-10-19T04:51:02.924Z,0
2017-10-19T04:52:05.357Z,0
2017-10-19T04:53:07.793Z,0
2017-10-19T04:54:10.225Z,0
2017-10-19T04:55:12.645Z,0
2017-10-19T04:56:15.079Z,0
2017-10-19T04:57:17.512Z,0
2017-10-19T04:58:19.936Z,0
2017-10-19T04:59:22.725Z,0
2017-10-19T05:00:25.161Z,0
2017-10-19T05:01:27.587Z,0
2017-10-19T05:02:30.030Z,0
2017-10-19T05:03:32.463Z,0
2017-10-19T05:04:34.885Z,0
2017-10-19T05:05:37.319Z,0
2017-10-19T05:06:39.757Z,0
2017-10-19T05:07:42.183Z,0
2017-10-19T05:08:44.621Z,0
2017-10-19T05:09:47.061Z,0
2017-10-19T05:10:49.481Z,0
2017-10-19T05:11:51.935Z,0
2017-10-19T05:12:54.359Z,0
2017-10-19T05:13:56.802Z,0
2017-10-19T05:14:59.600Z,0
2017-10-19T05:16:02.040Z,0
2017-10-19T05:17:04.468Z,0
2017-10-19T05:18:07.257Z,0
2017-10-19T05:19:09.695Z,0
2017-10-19T05:20:12.123Z,0
2017-10-19T05:21:14.549Z,0
2017-10-19T05:22:16.984Z,0
2017-10-19T05:23:19.779Z,0
2017-10-19T05:24:22.208Z,0
2017-10-19T05:25:24.631Z,0
2017-10-19T05:26:27.713Z,0
2017-10-19T05:27:31.986Z,0
2017-10-19T05:28:35.337Z,0
2017-10-19T05:29:38.416Z,0
2017-10-19T05:30:41.706Z,0
2017-10-19T05:31:46.694Z,0
2017-10-19T05:32:52.200Z,0
2017-10-19T05:33:57.127Z,0
2017-10-19T05:34:59.565Z,0
2017-10-19T05:36:01.986Z,0
2017-10-19T05:37:04.420Z,0
2017-10-19T05:38:06.834Z,0
2017-10-19T05:39:09.275Z,0
2017-10-19T05:40:11.708Z,1
2017-10-19T05:41:14.143Z,1
2017-10-19T05:42:16.566Z,1
2017-10-19T05:43:18.996Z,1
2017-10-19T05:44:21.789Z,1
2017-10-19T05:45:24.573Z,1
2017-10-19T05:46:27.004Z,2
2017-10-19T05:47:29.440Z,2
2017-10-19T05:48:31.873Z,2
2017-10-19T05:49:34.660Z,2
2017-10-19T05:50:37.457Z,2
2017-10-19T05:51:39.875Z,2
2017-10-19T05:52:42.323Z,2
2017-10-19T05:53:44.745Z,3
2017-10-19T05:54:47.168Z,3
2017-10-19T05:55:49.601Z,3
2017-10-19T05:56:52.031Z,3
2017-10-19T05:57:54.462Z,3
2017-10-19T05:58:56.891Z,4
2017-10-19T05:59:59.311Z,4
2017-10-19T06:01:01.742Z,4
2017-10-19T06:02:04.180Z,5
2017-10-19T06:03:06.612Z,5
2017-10-19T06:04:09.031Z,5
2017-10-19T06:05:11.468Z,6
2017-10-19T06:06:13.900Z,6
2017-10-19T06:07:16.344Z,6
2017-10-19T06:08:18.772Z,6
2017-10-19T06:09:21.205Z,7
2017-10-19T06:10:23.630Z,7
2017-10-19T06:11:26.072Z,7
2017-10-19T06:12:28.944Z,7
2017-10-19T06:13:31.887Z,7
2017-10-19T06:14:34.818Z,8
2017-10-19T06:15:39.493Z,8
2017-10-19T06:16:42.689Z,8
2017-10-19T06:17:46.292Z,9
2017-10-19T06:18:49.516Z,9
2017-10-19T06:19:52.880Z,9
2017-10-19T06:20:56.323Z,10
2017-10-19T06:21:59.318Z,10
2017-10-19T06:23:02.808Z,10
2017-10-19T06:24:06.178Z,11
2017-10-19T06:25:09.575Z,11
2017-10-19T06:26:12.906Z,11
2017-10-19T06:27:16.141Z,12
2017-10-19T06:28:19.412Z,12
2017-10-19T06:29:22.594Z,13
2017-10-19T06:30:26.486Z,13
2017-10-19T06:31:29.340Z,14
2017-10-19T06:32:32.442Z,14
2017-10-19T06:33:35.594Z,15
2017-10-19T06:34:39.195Z,15
2017-10-19T06:35:42.167Z,16
2017-10-19T06:36:45.055Z,16
2017-10-19T06:37:48.805Z,16
2017-10-19T06:38:51.919Z,17
2017-10-19T06:39:55.738Z,17
2017-10-19T06:40:58.643Z,17
2017-10-19T06:42:02.435Z,18
2017-10-19T06:43:05.686Z,18
2017-10-19T06:44:08.226Z,19
2017-10-19T06:45:10.656Z,19
2017-10-19T06:46:13.085Z,20
2017-10-19T06:47:15.517Z,20
2017-10-19T06:48:17.951Z,21
2017-10-19T06:49:20.389Z,21
2017-10-19T06:50:22.815Z,22
2017-10-19T06:51:25.240Z,22
2017-10-19T06:52:27.682Z,23
2017-10-19T06:53:30.109Z,24
2017-10-19T06:54:32.554Z,25
2017-10-19T06:55:34.974Z,27
2017-10-19T06:56:37.427Z,28
2017-10-19T06:57:39.845Z,28
2017-10-19T06:58:43.860Z,29
2017-10-19T06:59:48.778Z,31
2017-10-19T07:00:52.281Z,34
2017-10-19T07:01:58.309Z,37
2017-10-19T07:03:01.981Z,38
2017-10-19T07:04:04.404Z,39
2017-10-19T07:05:06.840Z,40
2017-10-19T07:06:09.266Z,41
2017-10-19T07:07:11.699Z,42
2017-10-19T07:08:14.846Z,41
2017-10-19T07:09:17.273Z,42
2017-10-19T07:10:19.708Z,43
2017-10-19T07:11:22.509Z,46
2017-10-19T07:12:24.944Z,47
2017-10-19T07:13:27.724Z,50
2017-10-19T07:14:30.168Z,54
2017-10-19T07:15:32.598Z,57
2017-10-19T07:16:35.370Z,59
2017-10-19T07:17:37.810Z,58
2017-10-19T07:18:40.237Z,57
2017-10-19T07:19:43.044Z,56
2017-10-19T07:20:45.477Z,54
2017-10-19T07:21:48.266Z,51
2017-10-19T07:22:50.685Z,55
2017-10-19T07:23:53.134Z,58
2017-10-19T07:24:55.554Z,57
2017-10-19T07:25:57.987Z,57
2017-10-19T07:27:00.423Z,59
2017-10-19T07:28:02.841Z,63
2017-10-19T07:29:05.278Z,66
2017-10-19T07:30:07.713Z,71
2017-10-19T07:31:10.151Z,76
2017-10-19T07:32:12.580Z,76
2017-10-19T07:33:15.014Z,74
2017-10-19T07:34:17.454Z,84
2017-10-19T07:35:19.871Z,88
2017-10-19T07:36:22.315Z,91
2017-10-19T07:37:24.745Z,95
2017-10-19T07:38:27.183Z,99
2017-10-19T07:39:29.614Z,98
2017-10-19T07:40:32.053Z,103
2017-10-19T07:41:34.481Z,106
2017-10-19T07:42:36.919Z,108
2017-10-19T07:43:39.351Z,114
2017-10-19T07:44:41.779Z,120
2017-10-19T07:45:44.225Z,122
2017-10-19T07:46:46.644Z,126
2017-10-19T07:47:49.084Z,132
2017-10-19T07:48:51.878Z,140
2017-10-19T07:49:54.298Z,145
2017-10-19T07:50:56.734Z,147
2017-10-19T07:51:59.173Z,150
2017-10-19T07:53:01.608Z,157
2017-10-19T07:54:04.051Z,155
2017-10-19T07:55:06.485Z,146
2017-10-19T07:56:08.933Z,118
2017-10-19T07:57:11.726Z,104
2017-10-19T07:58:14.519Z,105
2017-10-19T07:59:16.948Z,123
2017-10-19T08:00:19.391Z,123
2017-10-19T08:01:21.818Z,123
2017-10-19T08:02:24.256Z,111
2017-10-19T08:03:26.744Z,94
2017-10-19T08:04:29.180Z,85
2017-10-19T08:05:31.618Z,82
2017-10-19T08:06:34.054Z,83
2017-10-19T08:07:36.484Z,79
2017-10-19T08:08:38.928Z,75
2017-10-19T08:09:41.358Z,75
2017-10-19T08:10:43.793Z,75
2017-10-19T08:11:46.224Z,74
2017-10-19T08:12:49.023Z,68
2017-10-19T08:13:51.443Z,69
2017-10-19T08:14:53.876Z,71
2017-10-19T08:15:56.666Z,83
2017-10-19T08:16:59.102Z,105
2017-10-19T08:18:01.554Z,88
2017-10-19T08:19:03.978Z,125
2017-10-19T08:20:06.415Z,115
2017-10-19T08:21:08.861Z,98
2017-10-19T08:22:11.294Z,110
2017-10-19T08:23:13.726Z,108
2017-10-19T08:24:16.155Z,123
2017-10-19T08:25:18.590Z,146
2017-10-19T08:26:21.022Z,154
2017-10-19T08:27:23.452Z,161
2017-10-19T08:28:25.885Z,162
2017-10-19T08:29:28.688Z,164
2017-10-19T08:30:31.120Z,167
2017-10-19T08:31:33.558Z,172
2017-10-19T08:32:35.989Z,177
2017-10-19T08:33:38.425Z,184
2017-10-19T08:34:40.870Z,182
2017-10-19T08:35:43.305Z,177
2017-10-19T08:36:45.740Z,183
2017-10-19T08:37:48.183Z,190
2017-10-19T08:38:50.619Z,193
2017-10-19T08:39:53.059Z,188
2017-10-19T08:40:55.498Z,190
2017-10-19T08:41:57.919Z,195
2017-10-19T08:43:00.367Z,195
2017-10-19T08:44:02.805Z,195
2017-10-19T08:45:05.244Z,200
2017-10-19T08:46:07.681Z,207
2017-10-19T08:47:10.123Z,215
2017-10-19T08:48:12.564Z,218
2017-10-19T08:49:14.994Z,210
2017-10-19T08:50:17.437Z,208
2017-10-19T08:51:19.865Z,211
2017-10-19T08:52:22.664Z,209
2017-10-19T08:53:25.107Z,210
2017-10-19T08:54:27.894Z,227
2017-10-19T08:55:30.334Z,217
2017-10-19T08:56:32.783Z,236
2017-10-19T08:57:35.213Z,230
2017-10-19T08:58:37.664Z,236
2017-10-19T08:59:40.449Z,254
2017-10-19T09:00:42.884Z,263
2017-10-19T09:01:45.330Z,268
2017-10-19T09:02:47.765Z,260
2017-10-19T09:03:50.212Z,267
2017-10-19T09:04:52.664Z,271
2017-10-19T09:05:55.092Z,272
2017-10-19T09:06:57.545Z,277
2017-10-19T09:08:00.357Z,282
2017-10-19T09:09:02.820Z,291
2017-10-19T09:10:05.268Z,287
2017-10-19T09:11:07.696Z,283
2017-10-19T09:12:10.155Z,268
2017-10-19T09:13:12.575Z,288
2017-10-19T09:14:15.024Z,281
2017-10-19T09:15:17.472Z,256
2017-10-19T09:16:20.060Z,243
2017-10-19T09:17:22.504Z,227
2017-10-19T09:18:24.942Z,203
2017-10-19T09:19:27.382Z,259
2017-10-19T09:20:29.826Z,223
2017-10-19T09:21:32.275Z,218
2017-10-19T09:22:34.702Z,222
2017-10-19T09:23:37.148Z,295
2017-10-19T09:24:39.596Z,248
2017-10-19T09:25:42.036Z,271
2017-10-19T09:26:44.485Z,244
2017-10-19T09:27:46.926Z,243
2017-10-19T09:28:49.364Z,199
2017-10-19T09:29:51.816Z,178
2017-10-19T09:30:54.261Z,177
2017-10-19T09:31:57.048Z,193
2017-10-19T09:32:59.493Z,174
2017-10-19T09:34:01.940Z,171
2017-10-19T09:35:04.375Z,164
2017-10-19T09:36:06.820Z,155
2017-10-19T09:37:09.264Z,160
2017-10-19T09:38:11.708Z,183
2017-10-19T09:39:14.516Z,150
2017-10-19T09:40:16.946Z,142
2017-10-19T09:41:19.394Z,133
2017-10-19T09:42:21.833Z,131
2017-10-19T09:43:24.274Z,131
2017-10-19T09:44:26.724Z,131
2017-10-19T09:45:29.159Z,134
2017-10-19T09:46:31.608Z,137
2017-10-19T09:47:34.047Z,137
2017-10-19T09:48:36.470Z,143
2017-10-19T09:49:38.924Z,151
2017-10-19T09:50:41.360Z,148
2017-10-19T09:51:43.834Z,146
2017-10-19T09:52:46.247Z,147
2017-10-19T09:53:49.045Z,146
2017-10-19T09:54:51.481Z,146
2017-10-19T09:55:53.935Z,145
2017-10-19T09:56:56.358Z,149
2017-10-19T09:57:58.805Z,151
2017-10-19T09:59:01.591Z,155
2017-10-19T10:00:04.046Z,152
2017-10-19T10:01:06.470Z,155
2017-10-19T10:02:08.908Z,154
2017-10-19T10:03:11.331Z,167
2017-10-19T10:04:13.784Z,161
2017-10-19T10:05:16.212Z,174
2017-10-19T10:06:18.652Z,184
2017-10-19T10:07:21.090Z,182
2017-10-19T10:08:23.535Z,249
2017-10-19T10:09:25.971Z,355
2017-10-19T10:10:28.425Z,319
2017-10-19T10:11:30.859Z,302
2017-10-19T10:12:33.287Z,270
2017-10-19T10:13:36.085Z,226
2017-10-19T10:14:38.888Z,314
2017-10-19T10:15:41.694Z,284
2017-10-19T10:16:44.501Z,325
2017-10-19T10:17:46.935Z,363
2017-10-19T10:18:49.374Z,362
2017-10-19T10:19:51.826Z,354
2017-10-19T10:20:54.266Z,344
2017-10-19T10:21:56.702Z,307
2017-10-19T10:22:59.138Z,289
2017-10-19T10:24:01.945Z,323
2017-10-19T10:25:04.746Z,318
2017-10-19T10:26:07.200Z,304
2017-10-19T10:27:09.638Z,276
2017-10-19T10:28:12.080Z,196
2017-10-19T10:29:14.891Z,200
2017-10-19T10:30:17.335Z,216
2017-10-19T10:31:19.769Z,227
2017-10-19T10:32:22.217Z,216
2017-10-19T10:33:25.009Z,244
2017-10-19T10:34:27.455Z,269
2017-10-19T10:35:29.899Z,313
2017-10-19T10:36:32.326Z,248
2017-10-19T10:37:34.774Z,303
2017-10-19T10:38:37.225Z,247
2017-10-19T10:39:39.669Z,313
2017-10-19T10:40:42.119Z,310
2017-10-19T10:41:44.929Z,304
2017-10-19T10:42:47.375Z,296
2017-10-19T10:43:50.183Z,303
2017-10-19T10:44:52.620Z,313
2017-10-19T10:45:55.082Z,312
2017-10-19T10:46:57.873Z,310
2017-10-19T10:48:00.306Z,309
2017-10-19T10:49:02.796Z,320
2017-10-19T10:50:05.201Z,307
2017-10-19T10:51:07.645Z,298
2017-10-19T10:52:10.100Z,306
2017-10-19T10:53:12.529Z,316
2017-10-19T10:54:14.975Z,304
2017-10-19T10:55:17.432Z,286
2017-10-19T10:56:19.874Z,247
2017-10-19T10:57:22.319Z,199
2017-10-19T10:58:24.764Z,178
2017-10-19T10:59:27.558Z,165
2017-10-19T11:00:30.008Z,205
2017-10-19T11:01:32.456Z,203
2017-10-19T11:02:34.889Z,186
2017-10-19T11:03:37.337Z,227
2017-10-19T11:04:39.786Z,246
2017-10-19T11:05:42.226Z,214
2017-10-19T11:06:44.682Z,155
2017-10-19T11:07:47.125Z,129
2017-10-19T11:08:49.568Z,148
2017-10-19T11:09:52.035Z,130
2017-10-19T11:10:54.476Z,134
2017-10-19T11:11:56.909Z,129
2017-10-19T11:12:59.363Z,131
2017-10-19T11:14:01.812Z,130
2017-10-19T11:15:04.613Z,140
2017-10-19T11:16:07.055Z,165
2017-10-19T11:17:09.499Z,222
2017-10-19T11:18:11.937Z,249
2017-10-19T11:19:14.381Z,213
2017-10-19T11:20:16.823Z,194
2017-10-19T11:21:19.268Z,228
2017-10-19T11:22:21.712Z,243
2017-10-19T11:23:24.159Z,209
2017-10-19T11:24:26.605Z,184
2017-10-19T11:25:29.045Z,234
2017-10-19T11:26:31.480Z,263
2017-10-19T11:27:33.934Z,283
2017-10-19T11:28:36.373Z,283
2017-10-19T11:29:38.822Z,301
2017-10-19T11:30:41.256Z,241
2017-10-19T11:31:43.702Z,214
2017-10-19T11:32:46.137Z,201
2017-10-19T11:33:48.602Z,156
2017-10-19T11:34:51.031Z,141
2017-10-19T11:35:53.468Z,140
2017-10-19T11:36:55.921Z,149
2017-10-19T11:37:58.369Z,161
2017-10-19T11:39:01.167Z,152
2017-10-19T11:40:03.613Z,148
2017-10-19T11:41:06.058Z,144
2017-10-19T11:42:08.868Z,156
2017-10-19T11:43:11.324Z,161
2017-10-19T11:44:13.772Z,160
2017-10-19T11:45:16.556Z,159
2017-10-19T11:46:19.007Z,173
2017-10-19T11:47:21.459Z,160
2017-10-19T11:48:23.898Z,163
2017-10-19T11:49:26.347Z,159
2017-10-19T11:50:28.790Z,171
2017-10-19T11:51:31.234Z,178
2017-10-19T11:52:34.067Z,173
2017-10-19T11:53:36.500Z,215
2017-10-19T11:54:38.949Z,231
2017-10-19T11:55:41.389Z,183
2017-10-19T11:56:44.188Z,186
2017-10-19T11:57:46.639Z,241
2017-10-19T11:58:49.079Z,225
2017-10-19T11:59:51.521Z,206
2017-10-19T12:00:53.971Z,217
2017-10-19T12:01:56.416Z,252
2017-10-19T12:02:59.223Z,287
2017-10-19T12:04:01.669Z,268
2017-10-19T12:05:04.462Z,302
2017-10-19T12:06:07.267Z,286
2017-10-19T12:07:09.707Z,285
2017-10-19T12:08:12.145Z,307
2017-10-19T12:09:14.592Z,290
2017-10-19T12:10:17.026Z,272
2017-10-19T12:11:19.481Z,293
2017-10-19T12:12:21.927Z,288
2017-10-19T12:13:24.374Z,271
2017-10-19T12:14:26.821Z,255
2017-10-19T12:15:29.276Z,275
2017-10-19T12:16:31.709Z,267
2017-10-19T12:17:34.161Z,274
2017-10-19T12:18:36.587Z,268
2017-10-19T12:19:39.046Z,266
2017-10-19T12:20:41.486Z,283
2017-10-19T12:21:43.941Z,262
2017-10-19T12:22:46.380Z,247
2017-10-19T12:23:48.829Z,225
2017-10-19T12:24:51.279Z,231
2017-10-19T12:25:54.095Z,158
2017-10-19T12:26:56.535Z,134
2017-10-19T12:27:58.989Z,194
2017-10-19T12:29:01.435Z,239
2017-10-19T12:30:03.889Z,224
2017-10-19T12:31:06.326Z,192
2017-10-19T12:32:09.140Z,217
2017-10-19T12:33:11.950Z,221
2017-10-19T12:34:14.405Z,192
2017-10-19T12:35:17.594Z,160
2017-10-19T12:36:20.037Z,214
2017-10-19T12:37:22.490Z,207
2017-10-19T12:38:24.930Z,212
2017-10-19T12:39:27.730Z,162
2017-10-19T12:40:30.179Z,146
2017-10-19T12:41:32.631Z,144
2017-10-19T12:42:35.078Z,227
2017-10-19T12:43:37.536Z,149
2017-10-19T12:44:39.977Z,210
2017-10-19T12:45:42.421Z,197
2017-10-19T12:46:44.870Z,176
2017-10-19T12:47:47.309Z,156
2017-10-19T12:48:49.774Z,134
2017-10-19T12:49:52.204Z,114
2017-10-19T12:50:54.648Z,106
2017-10-19T12:51:57.504Z,142
2017-10-19T12:52:59.945Z,122
2017-10-19T12:54:02.393Z,158
2017-10-19T12:55:04.846Z,166
2017-10-19T12:56:07.652Z,129
2017-10-19T12:57:10.102Z,179
2017-10-19T12:58:12.556Z,184
2017-10-19T12:59:14.993Z,176
2017-10-19T13:00:17.798Z,162
2017-10-19T13:01:20.238Z,159
2017-10-19T13:02:22.677Z,153
2017-10-19T13:03:25.160Z,151
2017-10-19T13:04:27.615Z,146
2017-10-19T13:05:30.054Z,159
2017-10-19T13:06:32.511Z,141
2017-10-19T13:07:34.949Z,127
2017-10-19T13:08:37.395Z,117
2017-10-19T13:09:39.845Z,120
2017-10-19T13:10:43.007Z,134
2017-10-19T13:11:45.441Z,147
2017-10-19T13:12:47.887Z,146
2017-10-19T13:13:50.333Z,142
2017-10-19T13:14:52.779Z,131
2017-10-19T13:15:55.225Z,139
2017-10-19T13:16:57.677Z,128
2017-10-19T13:18:00.128Z,114
2017-10-19T13:19:02.576Z,110
2017-10-19T13:20:05.018Z,108
2017-10-19T13:21:07.473Z,109
2017-10-19T13:22:09.914Z,111
2017-10-19T13:23:12.365Z,114
2017-10-19T13:24:14.795Z,111
2017-10-19T13:25:17.246Z,110
2017-10-19T13:26:19.691Z,112
2017-10-19T13:27:22.134Z,110
2017-10-19T13:28:24.577Z,107
2017-10-19T13:29:27.027Z,104
2017-10-19T13:30:29.455Z,99
2017-10-19T13:31:31.912Z,95
2017-10-19T13:32:34.359Z,98
2017-10-19T13:33:36.797Z,96
2017-10-19T13:34:39.245Z,94
2017-10-19T13:35:41.691Z,92
2017-10-19T13:36:44.130Z,88
2017-10-19T13:37:46.586Z,86
2017-10-19T13:38:49.019Z,81
2017-10-19T13:39:51.479Z,77
2017-10-19T13:40:53.916Z,75
2017-10-19T13:41:56.358Z,73
2017-10-19T13:42:58.803Z,71
2017-10-19T13:44:01.247Z,70
2017-10-19T13:45:03.693Z,70
2017-10-19T13:46:06.136Z,67
2017-10-19T13:47:08.576Z,66
2017-10-19T13:48:11.020Z,66
2017-10-19T13:49:13.472Z,65
2017-10-19T13:50:15.914Z,68
2017-10-19T13:51:18.717Z,69
2017-10-19T13:52:21.164Z,74
2017-10-19T13:53:23.600Z,72
2017-10-19T13:54:26.045Z,69
2017-10-19T13:55:28.486Z,71
2017-10-19T13:56:30.916Z,74
2017-10-19T13:57:33.357Z,74
2017-10-19T13:58:35.800Z,73
2017-10-19T13:59:38.240Z,75
2017-10-19T14:00:40.678Z,76
2017-10-19T14:01:43.125Z,74
2017-10-19T14:02:45.562Z,73
2017-10-19T14:03:48.003Z,74
2017-10-19T14:04:50.450Z,69
2017-10-19T14:05:52.883Z,65
2017-10-19T14:06:55.334Z,62
2017-10-19T14:07:57.779Z,62
2017-10-19T14:09:00.222Z,61
2017-10-19T14:10:02.656Z,60
2017-10-19T14:11:05.102Z,58
2017-10-19T14:12:07.536Z,57
2017-10-19T14:13:09.979Z,55
2017-10-19T14:14:12.424Z,53
2017-10-19T14:15:14.873Z,52
2017-10-19T14:16:17.317Z,51
2017-10-19T14:17:19.761Z,49
2017-10-19T14:18:22.206Z,48
2017-10-19T14:19:24.651Z,47
2017-10-19T14:20:27.096Z,47
2017-10-19T14:21:29.538Z,46
2017-10-19T14:22:31.967Z,46
2017-10-19T14:23:34.415Z,44
2017-10-19T14:24:37.209Z,43
2017-10-19T14:25:39.649Z,42
2017-10-19T14:26:42.089Z,42
2017-10-19T14:27:44.521Z,41
2017-10-19T14:28:46.960Z,41
2017-10-19T14:29:49.412Z,40
2017-10-19T14:30:51.842Z,39
2017-10-19T14:31:54.298Z,39
2017-10-19T14:32:56.735Z,38
2017-10-19T14:33:59.174Z,37
2017-10-19T14:35:01.613Z,37
2017-10-19T14:36:04.059Z,37
2017-10-19T14:37:06.498Z,36
2017-10-19T14:38:08.933Z,36
2017-10-19T14:39:11.383Z,35
2017-10-19T14:40:13.826Z,34
2017-10-19T14:41:16.272Z,33
2017-10-19T14:42:18.707Z,33
2017-10-19T14:43:21.151Z,32
2017-10-19T14:44:23.586Z,31
2017-10-19T14:45:26.038Z,31
2017-10-19T14:46:28.469Z,31
2017-10-19T14:47:30.919Z,30
2017-10-19T14:48:33.362Z,30
2017-10-19T14:49:36.162Z,29
2017-10-19T14:50:39.309Z,29
2017-10-19T14:51:41.754Z,29
2017-10-19T14:52:44.188Z,28
2017-10-19T14:53:46.623Z,28